Time,TemperatureF,DewpointF,PressureIn,WindDirection,WindDirectionDegrees,WindSpeedMPH,WindSpeedGustMPH,Humidity,HourlyPrecipIn,Conditions,Clouds,dailyrainin,SoftwareType,DateUTC
2013-02-19 00:00:00,29.4,24.9,30.11,SW,234,0.0,12.0,83,0.00,,,0.00,Wunderground v.1.15,2013-02-19 05:00:00,
2013-02-19 00:05:00,29.3,24.8,30.11,SW,234,0.0,12.0,83,0.00,,,0.00,Wunderground v.1.15,2013-02-19 05:05:00,
2013-02-19 00:10:00,29.2,24.7,30.11,SW,234,0.0,12.0,83,0.00,,,0.00,Wunderground v.1.15,2013-02-19 05:10:00,
2013-02-19 00:15:00,29.1,24.6,30.10,SW,234,0.0,12.0,83,0.00,,,0.00,Wunderground v.1.15,2013-02-19 05:15:00,
2013-02-19 00:25:00,28.9,24.7,30.10,SW,234,0.0,12.0,84,0.00,,,0.00,Wunderground v.1.15,2013-02-19 05:25:00,
2013-02-19 00:30:00,28.9,24.7,30.10,SW,234,0.0,12.0,84,0.00,,,0.00,Wunderground v.1.15,2013-02-19 05:30:00,
2013-02-19 00:40:00,28.8,24.6,30.11,SW,234,0.0,12.0,84,0.00,,,0.00,Wunderground v.1.15,2013-02-19 05:40:00,
2013-02-19 00:50:00,28.8,24.6,30.10,SW,234,0.0,12.0,84,0.00,,,0.00,Wunderground v.1.15,2013-02-19 05:50:00,
2013-02-19 01:00:00,29.4,26.0,30.11,NNE,32,0.0,12.0,87,0.00,,,0.00,Wunderground v.1.15,2013-02-19 06:00:00,
2013-02-19 01:10:00,29.8,25.6,30.10,NNE,32,0.0,12.0,84,0.00,,,0.00,Wunderground v.1.15,2013-02-19 06:10:00,
2013-02-19 01:15:00,29.8,25.3,30.09,NNE,32,0.0,12.0,83,0.00,,,0.00,Wunderground v.1.15,2013-02-19 06:15:00,
2013-02-19 01:25:00,29.6,25.1,30.09,NNE,32,0.0,12.0,83,0.00,,,0.00,Wunderground v.1.15,2013-02-19 06:25:00,
2013-02-19 01:35:00,29.3,24.8,30.08,NNE,32,0.0,12.0,83,0.00,,,0.00,Wunderground v.1.15,2013-02-19 06:35:00,
2013-02-19 01:45:00,29.1,24.9,30.07,NNE,32,0.0,12.0,84,0.00,,,0.00,Wunderground v.1.15,2013-02-19 06:45:00,
2013-02-19 01:55:00,29.4,25.4,30.05,NNE,32,0.0,12.0,85,0.00,,,0.00,Wunderground v.1.15,2013-02-19 06:55:00,
2013-02-19 02:05:00,29.9,25.7,30.05,NNE,32,0.0,12.0,84,0.00,,,0.00,Wunderground v.1.15,2013-02-19 07:05:00,
2013-02-19 02:15:00,29.7,25.5,30.05,NNE,32,0.0,12.0,84,0.00,,,0.00,Wunderground v.1.15,2013-02-19 07:15:00,
2013-02-19 02:20:00,29.7,25.7,30.05,NNE,32,0.0,12.0,85,0.00,,,0.00,Wunderground v.1.15,2013-02-19 07:20:00,
2013-02-19 02:30:00,30.0,26.0,30.04,NNE,31,0.0,12.0,85,0.00,,,0.00,Wunderground v.1.15,2013-02-19 07:30:00,
2013-02-19 02:40:00,30.8,26.2,30.04,NNE,31,0.0,12.0,83,0.00,,,0.00,Wunderground v.1.15,2013-02-19 07:40:00,
2013-02-19 02:50:00,31.2,26.6,30.05,NNE,31,0.0,12.0,83,0.00,,,0.00,Wunderground v.1.15,2013-02-19 07:50:00,
2013-02-19 03:00:00,31.8,26.9,30.05,NNE,31,0.0,12.0,82,0.00,,,0.00,Wunderground v.1.15,2013-02-19 08:00:00,
2013-02-19 03:10:00,32.3,27.1,30.04,NNE,31,0.0,12.0,81,0.00,,,0.00,Wunderground v.1.15,2013-02-19 08:10:00,
2013-02-19 03:20:00,32.2,27.3,30.04,NNE,31,0.0,12.0,82,0.00,,,0.00,Wunderground v.1.15,2013-02-19 08:20:00,
2013-02-19 03:30:00,32.6,27.7,30.02,NNE,31,0.0,12.0,82,0.00,,,0.00,Wunderground v.1.15,2013-02-19 08:30:00,
2013-02-19 03:40:00,32.7,27.8,30.02,NNE,31,0.0,12.0,82,0.00,,,0.00,Wunderground v.1.15,2013-02-19 08:40:00,
2013-02-19 03:45:00,32.8,27.9,30.02,NNE,31,0.0,12.0,82,0.00,,,0.00,Wunderground v.1.15,2013-02-19 08:45:00,
2013-02-19 03:55:00,33.0,27.8,30.03,NNE,31,0.0,12.0,81,0.00,,,0.00,Wunderground v.1.15,2013-02-19 08:55:00,
2013-02-19 04:05:00,33.1,27.9,30.03,NNE,31,0.0,12.0,81,0.00,,,0.00,Wunderground v.1.15,2013-02-19 09:05:00,
2013-02-19 04:15:00,33.6,28.7,30.03,NNE,31,0.0,12.0,82,0.00,,,0.00,Wunderground v.1.15,2013-02-19 09:15:00,
2013-02-19 04:25:00,33.8,28.6,30.02,NNE,31,0.0,12.0,81,0.00,,,0.00,Wunderground v.1.15,2013-02-19 09:25:00,
2013-02-19 04:35:00,34.4,27.9,30.01,NNE,28,0.0,12.0,77,0.00,,,0.00,Wunderground v.1.15,2013-02-19 09:35:00,
2013-02-19 04:45:00,36.4,28.2,30.00,WNW,299,0.0,12.0,72,0.00,,,0.00,Wunderground v.1.15,2013-02-19 09:45:00,
2013-02-19 04:55:00,37.7,28.1,30.00,WNW,294,0.0,12.0,68,0.00,,,0.00,Wunderground v.1.15,2013-02-19 09:55:00,
2013-02-19 05:05:00,38.6,28.2,30.00,WNW,287,3.0,12.0,66,0.00,,,0.00,Wunderground v.1.15,2013-02-19 10:05:00,
2013-02-19 05:10:00,38.9,28.1,30.00,NW,313,2.0,12.0,65,0.00,,,0.00,Wunderground v.1.15,2013-02-19 10:10:00,
2013-02-19 05:20:00,39.2,28.0,30.00,NW,313,1.0,1.0,64,0.00,,,0.00,Wunderground v.1.15,2013-02-19 10:20:00,
2013-02-19 05:30:00,39.2,28.0,30.00,NW,309,0.0,12.0,64,0.00,,,0.00,Wunderground v.1.15,2013-02-19 10:30:00,
2013-02-19 05:40:00,39.2,28.0,30.00,NW,309,0.0,12.0,64,0.00,,,0.00,Wunderground v.1.15,2013-02-19 10:40:00,
2013-02-19 05:50:00,39.1,28.3,30.00,NW,309,0.0,12.0,65,0.00,,,0.00,Wunderground v.1.15,2013-02-19 10:50:00,
2013-02-19 06:00:00,39.1,28.3,30.00,NW,309,0.0,12.0,65,0.00,,,0.00,Wunderground v.1.15,2013-02-19 11:00:00,
2013-02-19 06:10:00,39.0,28.6,30.00,NW,309,0.0,12.0,66,0.00,,,0.00,Wunderground v.1.15,2013-02-19 11:10:00,
2013-02-19 06:20:00,38.6,28.9,30.00,NW,319,0.0,12.0,68,0.00,,,0.00,Wunderground v.1.15,2013-02-19 11:20:00,
2013-02-19 06:30:00,38.3,29.0,30.01,NNW,334,2.0,12.0,69,0.00,,,0.00,Wunderground v.1.15,2013-02-19 11:30:00,
2013-02-19 06:35:00,38.2,29.6,30.00,NNW,340,4.0,12.0,71,0.00,,,0.00,Wunderground v.1.15,2013-02-19 11:35:00,
2013-02-19 06:45:00,37.7,30.2,29.98,NNW,347,2.0,12.0,74,0.00,,,0.00,Wunderground v.1.15,2013-02-19 11:45:00,
2013-02-19 06:55:00,37.0,30.8,29.99,NNW,347,0.0,12.0,78,0.00,,,0.01,Wunderground v.1.15,2013-02-19 11:55:00,
2013-02-19 07:05:00,36.5,31.2,29.99,NNW,347,0.0,12.0,81,0.04,,,0.02,Wunderground v.1.15,2013-02-19 12:05:00,
2013-02-19 07:15:00,35.9,31.2,29.99,NNW,347,0.0,12.0,83,0.04,,,0.02,Wunderground v.1.15,2013-02-19 12:15:00,
2013-02-19 07:25:00,35.0,30.9,29.98,NNW,347,0.0,12.0,85,0.00,,,0.02,Wunderground v.1.15,2013-02-19 12:25:00,
2013-02-19 07:35:00,34.6,31.1,29.97,NNW,347,0.0,12.0,87,0.00,,,0.03,Wunderground v.1.15,2013-02-19 12:35:00,
2013-02-19 07:40:00,34.4,30.9,29.97,NNW,347,0.0,12.0,87,0.00,,,0.03,Wunderground v.1.15,2013-02-19 12:40:00,
2013-02-19 07:50:00,34.3,31.1,29.97,NNW,347,0.0,12.0,88,0.05,,,0.04,Wunderground v.1.15,2013-02-19 12:50:00,
2013-02-19 08:00:00,34.2,31.3,29.96,NNW,347,0.0,0.0,89,0.00,,,0.04,Wunderground v.1.15,2013-02-19 13:00:00,
2013-02-19 08:10:00,34.3,31.7,29.97,NNW,347,0.0,0.0,90,0.00,,,0.04,Wunderground v.1.15,2013-02-19 13:10:00,
2013-02-19 08:20:00,34.3,31.9,29.95,NNW,347,0.0,0.0,91,0.00,,,0.05,Wunderground v.1.15,2013-02-19 13:20:00,
2013-02-19 08:30:00,34.6,32.5,29.95,NNW,347,0.0,0.0,92,0.00,,,0.05,Wunderground v.1.15,2013-02-19 13:30:00,
2013-02-19 08:40:00,34.8,32.7,29.94,NNW,347,0.0,0.0,92,0.00,,,0.05,Wunderground v.1.15,2013-02-19 13:40:00,
2013-02-19 08:50:00,34.9,32.8,29.94,NNW,346,0.0,0.0,92,0.00,,,0.05,Wunderground v.1.15,2013-02-19 13:50:00,
2013-02-19 09:00:00,35.0,32.9,29.93,NNW,347,0.0,0.0,92,0.00,,,0.05,Wunderground v.1.15,2013-02-19 14:00:00,
2013-02-19 09:10:00,35.3,33.5,29.93,NNW,346,0.0,0.0,93,0.00,,,0.05,Wunderground v.1.15,2013-02-19 14:10:00,
2013-02-19 09:20:00,35.5,33.7,29.93,NNW,347,0.0,0.0,93,0.00,,,0.05,Wunderground v.1.15,2013-02-19 14:20:00,
2013-02-19 09:25:00,35.7,33.9,29.92,NNW,347,0.0,0.0,93,0.00,,,0.05,Wunderground v.1.15,2013-02-19 14:25:00,
2013-02-19 09:35:00,36.0,33.9,29.92,NNW,346,0.0,0.0,92,0.00,,,0.05,Wunderground v.1.15,2013-02-19 14:35:00,
2013-02-19 09:45:00,36.1,34.0,29.91,NNW,346,0.0,0.0,92,0.00,,,0.05,Wunderground v.1.15,2013-02-19 14:45:00,
2013-02-19 09:50:00,36.4,34.3,29.91,NNW,346,0.0,0.0,92,0.00,,,0.05,Wunderground v.1.15,2013-02-19 14:50:00,
2013-02-19 10:00:00,36.8,35.0,29.91,NNW,346,0.0,0.0,93,0.00,,,0.05,Wunderground v.1.15,2013-02-19 15:00:00,
2013-02-19 10:10:00,37.1,35.0,29.91,NNW,346,0.0,0.0,92,0.00,,,0.05,Wunderground v.1.15,2013-02-19 15:10:00,
2013-02-19 10:20:00,37.4,35.3,29.91,NNW,347,0.0,0.0,92,0.00,,,0.05,Wunderground v.1.15,2013-02-19 15:20:00,
2013-02-19 10:25:00,37.4,35.3,29.91,NNW,346,0.0,0.0,92,0.00,,,0.05,Wunderground v.1.15,2013-02-19 15:25:00,
2013-02-19 10:30:00,37.6,35.5,29.91,NNW,347,0.0,0.0,92,0.00,,,0.05,Wunderground v.1.15,2013-02-19 15:30:00,
2013-02-19 10:35:00,37.7,35.6,29.91,NNW,346,0.0,0.0,92,0.00,,,0.05,Wunderground v.1.15,2013-02-19 15:35:00,
2013-02-19 10:40:00,37.9,35.8,29.90,NNW,346,0.0,0.0,92,0.00,,,0.05,Wunderground v.1.15,2013-02-19 15:40:00,
2013-02-19 10:50:00,38.2,36.1,29.90,North,355,0.0,0.0,92,0.00,,,0.05,Wunderground v.1.15,2013-02-19 15:50:00,
2013-02-19 10:55:00,38.3,36.2,29.91,North,355,0.0,0.0,92,0.00,,,0.05,Wunderground v.1.15,2013-02-19 15:55:00,
2013-02-19 11:01:00,38.5,36.4,29.90,North,355,0.0,0.0,92,0.00,,,0.05,Wunderground v.1.15,2013-02-19 16:01:00,
2013-02-19 11:10:00,38.8,36.7,29.89,North,355,0.0,0.0,92,0.00,,,0.05,Wunderground v.1.15,2013-02-19 16:10:00,
2013-02-19 11:20:00,39.2,37.1,29.89,North,355,0.0,0.0,92,0.00,,,0.05,Wunderground v.1.15,2013-02-19 16:20:00,
2013-02-19 11:30:00,39.7,37.6,29.89,North,355,0.0,0.0,92,0.00,,,0.05,Wunderground v.1.15,2013-02-19 16:30:00,
2013-02-19 11:40:00,40.1,38.0,29.88,North,355,0.0,0.0,92,0.00,,,0.05,Wunderground v.1.15,2013-02-19 16:40:00,
2013-02-19 11:45:00,40.4,38.3,29.88,North,355,0.0,0.0,92,0.00,,,0.05,Wunderground v.1.15,2013-02-19 16:45:00,
2013-02-19 11:55:00,40.9,38.8,29.88,North,355,0.0,0.0,92,0.00,,,0.05,Wunderground v.1.15,2013-02-19 16:55:00,
2013-02-19 12:00:00,41.1,38.7,29.87,North,355,0.0,1.0,91,0.00,,,0.05,Wunderground v.1.15,2013-02-19 17:00:00,
2013-02-19 12:10:00,41.7,39.3,29.86,NNW,345,0.0,5.0,91,0.00,,,0.05,Wunderground v.1.15,2013-02-19 17:10:00,
2013-02-19 12:20:00,42.4,40.0,29.85,SSW,213,0.0,0.0,91,0.00,,,0.05,Wunderground v.1.15,2013-02-19 17:20:00,
2013-02-19 12:25:00,42.9,40.5,29.85,SSW,213,0.0,0.0,91,0.00,,,0.05,Wunderground v.1.15,2013-02-19 17:25:00,
2013-02-19 12:35:00,43.4,40.1,29.85,SSW,203,3.0,7.0,88,0.00,,,0.05,Wunderground v.1.15,2013-02-19 17:35:00,
2013-02-19 12:45:00,44.0,40.7,29.83,WNW,290,4.0,5.0,88,0.00,,,0.05,Wunderground v.1.15,2013-02-19 17:45:00,
2013-02-19 12:55:00,44.7,41.1,29.83,West,270,4.0,8.0,87,0.00,,,0.05,Wunderground v.1.15,2013-02-19 17:55:00,
2013-02-19 13:00:00,45.1,40.9,29.83,West,278,3.0,3.0,85,0.00,,,0.05,Wunderground v.1.15,2013-02-19 18:00:00,
2013-02-19 13:10:00,46.9,42.3,29.82,NW,320,4.0,4.0,84,0.00,,,0.05,Wunderground v.1.15,2013-02-19 18:10:00,
2013-02-19 13:20:00,47.2,41.7,29.82,NW,313,3.0,4.0,81,0.00,,,0.05,Wunderground v.1.15,2013-02-19 18:20:00,
2013-02-19 13:25:00,47.6,42.1,29.82,SSW,201,2.0,4.0,81,0.00,,,0.05,Wunderground v.1.15,2013-02-19 18:25:00,
2013-02-19 13:35:00,48.0,41.8,29.81,WNW,293,2.0,2.0,79,0.00,,,0.05,Wunderground v.1.15,2013-02-19 18:35:00,
2013-02-19 13:40:00,47.8,41.9,29.80,West,278,1.0,5.0,80,0.00,,,0.05,Wunderground v.1.15,2013-02-19 18:40:00,
2013-02-19 13:50:00,48.6,42.7,29.79,SW,217,0.0,0.0,80,0.00,,,0.05,Wunderground v.1.15,2013-02-19 18:50:00,
2013-02-19 14:00:00,49.5,42.9,29.78,WSW,239,0.0,0.0,78,0.00,,,0.05,Wunderground v.1.15,2013-02-19 19:00:00,
2013-02-19 14:10:00,50.7,43.4,29.78,West,274,0.0,0.0,76,0.00,,,0.05,Wunderground v.1.15,2013-02-19 19:10:00,
2013-02-19 14:15:00,51.2,43.9,29.78,West,274,0.0,0.0,76,0.00,,,0.05,Wunderground v.1.15,2013-02-19 19:15:00,
2013-02-19 14:25:00,52.2,43.4,29.77,SW,227,2.0,2.0,72,0.00,,,0.05,Wunderground v.1.15,2013-02-19 19:25:00,
2013-02-19 14:35:00,53.3,43.8,29.76,SW,221,2.0,2.0,70,0.00,,,0.05,Wunderground v.1.15,2013-02-19 19:35:00,
2013-02-19 14:45:00,54.2,44.6,29.76,SW,215,2.0,6.0,70,0.00,,,0.05,Wunderground v.1.15,2013-02-19 19:45:00,
2013-02-19 14:55:00,54.7,44.3,29.76,SSW,199,2.0,2.0,68,0.00,,,0.05,Wunderground v.1.15,2013-02-19 19:55:00,
2013-02-19 15:01:00,54.6,43.5,29.76,North,10,2.0,2.0,66,0.00,,,0.05,Wunderground v.1.15,2013-02-19 20:01:00,
2013-02-19 15:10:00,55.1,44.3,29.76,WNW,290,1.0,4.0,67,0.00,,,0.05,Wunderground v.1.15,2013-02-19 20:10:00,
2013-02-19 15:20:00,55.4,43.0,29.76,NNW,330,4.0,7.0,63,0.00,,,0.05,Wunderground v.1.15,2013-02-19 20:20:00,
2013-02-19 15:30:00,55.6,43.2,29.76,WNW,300,3.0,6.0,63,0.00,,,0.05,Wunderground v.1.15,2013-02-19 20:30:00,
2013-02-19 15:35:00,55.6,42.8,29.76,SW,221,2.0,6.0,62,0.00,,,0.05,Wunderground v.1.15,2013-02-19 20:35:00,
2013-02-19 15:40:00,55.5,42.3,29.76,NW,315,3.0,3.0,61,0.00,,,0.05,Wunderground v.1.15,2013-02-19 20:40:00,
2013-02-19 15:45:00,55.5,42.3,29.76,WNW,287,3.0,7.0,61,0.00,,,0.05,Wunderground v.1.15,2013-02-19 20:45:00,
2013-02-19 15:55:00,55.3,37.0,29.76,NNW,338,5.0,10.0,50,0.00,,,0.05,Wunderground v.1.15,2013-02-19 20:55:00,
2013-02-19 16:00:00,55.2,33.6,29.76,North,355,9.0,11.0,44,0.00,,,0.05,Wunderground v.1.15,2013-02-19 21:00:00,
2013-02-19 16:10:00,55.0,31.7,29.77,NNW,337,11.0,13.0,41,0.00,,,0.05,Wunderground v.1.15,2013-02-19 21:10:00,
2013-02-19 16:20:00,54.7,30.8,29.77,NNW,348,13.0,13.0,40,0.00,,,0.05,Wunderground v.1.15,2013-02-19 21:20:00,
2013-02-19 16:30:00,54.2,32.2,29.78,NNE,28,8.0,8.0,43,0.00,,,0.05,Wunderground v.1.15,2013-02-19 21:30:00,
2013-02-19 16:35:00,53.5,31.5,29.78,NNE,30,9.0,14.0,43,0.00,,,0.05,Wunderground v.1.15,2013-02-19 21:35:00,
2013-02-19 16:45:00,53.3,30.2,29.78,NNW,336,12.0,12.0,41,0.00,,,0.05,Wunderground v.1.15,2013-02-19 21:45:00,
2013-02-19 16:55:00,53.1,29.4,29.79,NNE,21,12.0,21.0,40,0.00,,,0.05,Wunderground v.1.15,2013-02-19 21:55:00,
2013-02-19 17:01:00,52.6,29.5,29.79,NNW,345,15.0,16.0,41,0.00,,,0.05,Wunderground v.1.15,2013-02-19 22:01:00,
2013-02-19 17:10:00,52.0,28.4,29.80,NNE,20,18.0,18.0,40,0.00,,,0.05,Wunderground v.1.15,2013-02-19 22:10:00,
2013-02-19 17:20:00,51.5,26.7,29.81,NNW,342,18.0,18.0,38,0.00,,,0.05,Wunderground v.1.15,2013-02-19 22:20:00,
2013-02-19 17:25:00,51.4,26.6,29.81,NNE,26,18.0,18.0,38,0.00,,,0.05,Wunderground v.1.15,2013-02-19 22:25:00,
2013-02-19 17:35:00,51.1,26.3,29.82,NNW,343,13.0,14.0,38,0.00,,,0.05,Wunderground v.1.15,2013-02-19 22:35:00,
2013-02-19 17:45:00,50.6,26.5,29.82,North,355,11.0,12.0,39,0.00,,,0.05,Wunderground v.1.15,2013-02-19 22:45:00,
2013-02-19 17:50:00,50.2,24.9,29.83,NNW,331,11.0,11.0,37,0.00,,,0.05,Wunderground v.1.15,2013-02-19 22:50:00,
2013-02-19 18:00:00,49.4,24.2,29.83,NNW,344,12.0,16.0,37,0.00,,,0.05,Wunderground v.1.15,2013-02-19 23:00:00,
2013-02-19 18:10:00,48.8,24.9,29.84,NE,39,9.0,9.0,39,0.00,,,0.05,Wunderground v.1.15,2013-02-19 23:10:00,
2013-02-19 18:20:00,48.4,24.6,29.84,NW,325,12.0,12.0,39,0.00,,,0.05,Wunderground v.1.15,2013-02-19 23:20:00,
2013-02-19 18:30:00,48.1,24.3,29.85,NNW,332,9.0,33.0,39,0.00,,,0.05,Wunderground v.1.15,2013-02-19 23:30:00,
2013-02-19 18:40:00,47.8,25.2,29.85,North,350,9.0,33.0,41,0.00,,,0.05,Wunderground v.1.15,2013-02-19 23:40:00,
2013-02-19 18:50:00,47.5,24.3,29.86,North,5,8.0,33.0,40,0.00,,,0.05,Wunderground v.1.15,2013-02-19 23:50:00,
2013-02-19 19:00:00,47.5,22.5,29.86,NNE,26,14.0,14.0,37,0.00,,,0.05,Wunderground v.1.15,2013-02-20 00:00:00,
2013-02-19 19:10:00,47.4,23.0,29.86,NW,317,13.0,13.0,38,0.00,,,0.05,Wunderground v.1.15,2013-02-20 00:10:00,
2013-02-19 19:20:00,47.3,21.0,29.87,NNE,28,14.0,14.0,35,0.00,,,0.05,Wunderground v.1.15,2013-02-20 00:20:00,
2013-02-19 19:30:00,47.2,20.9,29.87,North,11,14.0,14.0,35,0.00,,,0.05,Wunderground v.1.15,2013-02-20 00:30:00,
2013-02-19 19:40:00,46.8,20.6,29.87,North,355,12.0,12.0,35,0.00,,,0.05,Wunderground v.1.15,2013-02-20 00:40:00,
2013-02-19 19:45:00,46.6,21.0,29.88,North,360,11.0,33.0,36,0.00,,,0.05,Wunderground v.1.15,2013-02-20 00:45:00,
2013-02-19 19:55:00,46.3,20.8,29.88,North,360,10.0,33.0,36,0.00,,,0.05,Wunderground v.1.15,2013-02-20 00:55:00,
2013-02-19 20:05:00,45.9,20.4,29.88,North,5,9.0,33.0,36,0.00,,,0.05,Wunderground v.1.15,2013-02-20 01:05:00,
2013-02-19 20:15:00,45.5,20.7,29.88,NNE,14,6.0,33.0,37,0.00,,,0.05,Wunderground v.1.15,2013-02-20 01:15:00,
2013-02-19 20:25:00,45.1,19.0,29.89,North,355,8.0,33.0,35,0.00,,,0.05,Wunderground v.1.15,2013-02-20 01:25:00,
2013-02-19 20:35:00,45.1,19.0,29.89,North,360,9.0,33.0,35,0.00,,,0.05,Wunderground v.1.15,2013-02-20 01:35:00,
2013-02-19 20:45:00,44.6,17.9,29.89,North,360,8.0,33.0,34,0.00,,,0.05,Wunderground v.1.15,2013-02-20 01:45:00,
2013-02-19 20:55:00,44.3,18.3,29.90,North,9,7.0,33.0,35,0.00,,,0.05,Wunderground v.1.15,2013-02-20 01:55:00,
2013-02-19 21:05:00,43.4,18.8,29.90,NE,42,4.0,33.0,37,0.00,,,0.05,Wunderground v.1.15,2013-02-20 02:05:00,
2013-02-19 21:15:00,42.8,18.3,29.90,NE,40,5.0,33.0,37,0.00,,,0.05,Wunderground v.1.15,2013-02-20 02:15:00,
2013-02-19 21:25:00,42.8,18.9,29.90,North,5,6.0,33.0,38,0.00,,,0.05,Wunderground v.1.15,2013-02-20 02:25:00,
2013-02-19 21:35:00,42.1,18.9,29.91,North,11,1.0,4.0,39,0.00,,,0.05,Wunderground v.1.15,2013-02-20 02:35:00,
2013-02-19 21:45:00,41.8,18.0,29.91,NNE,15,2.0,33.0,38,0.00,,,0.05,Wunderground v.1.15,2013-02-20 02:45:00,
2013-02-19 21:55:00,40.9,18.4,29.91,NNE,15,0.0,33.0,40,0.00,,,0.05,Wunderground v.1.15,2013-02-20 02:55:00,
2013-02-19 22:05:00,39.9,18.6,29.92,NNE,15,0.0,33.0,42,0.00,,,0.05,Wunderground v.1.15,2013-02-20 03:05:00,
2013-02-19 22:15:00,39.3,18.1,29.92,NNE,15,0.0,33.0,42,0.00,,,0.05,Wunderground v.1.15,2013-02-20 03:15:00,
2013-02-19 22:25:00,38.9,16.6,29.92,NE,49,1.0,33.0,40,0.00,,,0.05,Wunderground v.1.15,2013-02-20 03:25:00,
2013-02-19 22:30:00,39.5,18.3,29.92,NNE,13,3.0,33.0,42,0.00,,,0.05,Wunderground v.1.15,2013-02-20 03:30:00,
2013-02-19 22:40:00,40.6,16.3,29.92,North,11,8.0,8.0,37,0.00,,,0.05,Wunderground v.1.15,2013-02-20 03:40:00,
2013-02-19 22:45:00,40.6,16.9,29.92,North,355,5.0,10.0,38,0.00,,,0.05,Wunderground v.1.15,2013-02-20 03:45:00,
2013-02-19 22:55:00,40.8,15.9,29.92,NNE,17,10.0,33.0,36,0.00,,,0.05,Wunderground v.1.15,2013-02-20 03:55:00,
2013-02-19 23:05:00,40.9,16.0,29.93,North,355,10.0,13.0,36,0.00,,,0.05,Wunderground v.1.15,2013-02-20 04:05:00,
2013-02-19 23:15:00,40.6,15.7,29.93,NNW,331,10.0,33.0,36,0.00,,,0.05,Wunderground v.1.15,2013-02-20 04:15:00,
2013-02-19 23:25:00,40.2,16.0,29.93,North,5,8.0,10.0,37,0.00,,,0.05,Wunderground v.1.15,2013-02-20 04:25:00,
2013-02-19 23:35:00,40.0,15.8,29.93,NNE,14,8.0,8.0,37,0.00,,,0.05,Wunderground v.1.15,2013-02-20 04:35:00,
2013-02-19 23:45:00,39.5,16.0,29.93,North,5,4.0,33.0,38,0.00,,,0.05,Wunderground v.1.15,2013-02-20 04:45:00,
2013-02-19 23:55:00,39.5,16.0,29.94,NNE,22,8.0,33.0,38,0.00,,,0.05,Wunderground v.1.15,2013-02-20 04:55:00,